createdAt,value
2018-07-06T00:02:39.876Z,100433.37
2018-07-06T00:05:26.546Z,100434.52
2018-07-06T00:08:07.037Z,100442.05
2018-07-06T00:10:53.505Z,100439.29
2018-07-06T00:13:40.143Z,100441.14
2018-07-06T00:16:26.663Z,100442.98
2018-07-06T00:19:13.245Z,100444.01
2018-07-06T00:21:59.953Z,100444.48
2018-07-06T00:24:46.430Z,100451.22
2018-07-06T00:27:32.773Z,100451.49
2018-07-06T00:30:19.443Z,100459.82
2018-07-06T00:33:05.887Z,100451.38
2018-07-06T00:35:52.448Z,100455.49
2018-07-06T00:38:39.084Z,100449.34
2018-07-06T00:41:25.391Z,100457.31
2018-07-06T00:44:12.068Z,100456.59
2018-07-06T00:46:59.445Z,100460.95
2018-07-06T00:49:46.004Z,100469.09
2018-07-06T00:52:32.259Z,100469.79
2018-07-06T00:55:18.635Z,100475.45
2018-07-06T00:58:05.424Z,100481.69
2018-07-06T01:00:52.003Z,100486.75
2018-07-06T01:03:38.359Z,100484.46
2018-07-06T01:06:24.920Z,100482.20
2018-07-06T01:09:11.407Z,100483.56
2018-07-06T01:12:01.936Z,100488.34
2018-07-06T01:14:48.522Z,100488.39
2018-07-06T01:17:36.671Z,100490.25
2018-07-06T01:20:23.511Z,100493.88
2018-07-06T01:23:09.915Z,100503.27
2018-07-06T01:25:57.848Z,100489.38
2018-07-06T01:28:44.431Z,100498.69
2018-07-06T01:31:31.111Z,100501.45
2018-07-06T01:34:17.695Z,100503.34
2018-07-06T01:37:04.984Z,100504.20
2018-07-06T01:39:51.391Z,100511.30
2018-07-06T01:42:37.815Z,100516.03
2018-07-06T01:45:24.395Z,100515.70
2018-07-06T01:48:10.923Z,100513.56
2018-07-06T01:50:57.651Z,100514.80
2018-07-06T01:53:44.111Z,100519.87
2018-07-06T01:56:30.480Z,100523.72
2018-07-06T01:59:17.039Z,100513.56
2018-07-06T02:02:03.623Z,100518.16
2018-07-06T02:04:49.984Z,100517.91
2018-07-06T02:07:36.502Z,100516.17
2018-07-06T02:10:23.395Z,100523.03
2018-07-06T02:13:09.867Z,100523.80
2018-07-06T02:15:56.200Z,100532.88
2018-07-06T02:18:42.719Z,100529.80
2018-07-06T02:21:29.580Z,100537.34
2018-07-06T02:24:17.125Z,100544.47
2018-07-06T02:27:03.939Z,100544.78
2018-07-06T02:29:51.172Z,100548.47
2018-07-06T02:32:37.843Z,100546.66
2018-07-06T02:35:25.159Z,100550.34
2018-07-06T02:38:11.755Z,100553.60
2018-07-06T02:40:58.523Z,100555.34
2018-07-06T02:43:46.007Z,100558.87
2018-07-06T02:46:32.791Z,100556.38
2018-07-06T02:49:19.899Z,100560.20
2018-07-06T02:52:06.355Z,100564.64
2018-07-06T02:54:52.842Z,100566.59
2018-07-06T02:57:40.201Z,100573.47
2018-07-06T03:00:27.564Z,100575.27
2018-07-06T03:03:14.350Z,100580.45
2018-07-06T03:06:01.091Z,100582.19
2018-07-06T03:08:48.006Z,100580.52
2018-07-06T03:11:28.495Z,100588.06
2018-07-06T03:14:15.025Z,100590.67
2018-07-06T03:17:02.280Z,100595.48
2018-07-06T03:19:48.682Z,100595.25
2018-07-06T03:22:35.326Z,100598.09
2018-07-06T03:25:21.824Z,100596.61
2018-07-06T03:28:08.382Z,100598.12
2018-07-06T03:30:54.858Z,100604.46
2018-07-06T03:33:41.525Z,100605.39
2018-07-06T03:36:28.374Z,100611.97
2018-07-06T03:39:15.004Z,100616.59
2018-07-06T03:42:01.477Z,100621.94
2018-07-06T03:44:47.943Z,100621.78
2018-07-06T03:47:34.452Z,100620.25
2018-07-06T03:50:21.103Z,100622.49
2018-07-06T03:53:07.636Z,100625.33
2018-07-06T03:55:54.194Z,100624.47
2018-07-06T03:58:40.520Z,100627.69
2018-07-06T04:01:26.792Z,100625.01
2018-07-06T04:04:13.430Z,100627.75
2018-07-06T04:07:00.137Z,100632.27
2018-07-06T04:09:46.750Z,100633.86
2018-07-06T04:12:33.446Z,100639.06
2018-07-06T04:15:19.785Z,100640.47
2018-07-06T04:18:06.389Z,100645.80
2018-07-06T04:20:52.896Z,100651.06
2018-07-06T04:23:39.555Z,100647.86
2018-07-06T04:26:26.148Z,100642.50
2018-07-06T04:29:12.662Z,100651.23
2018-07-06T04:31:59.251Z,100646.50
2018-07-06T04:34:45.739Z,100651.63
2018-07-06T04:37:32.331Z,100656.84
2018-07-06T04:40:18.965Z,100662.28
2018-07-06T04:43:05.862Z,100662.52
2018-07-06T04:45:52.205Z,100661.65
2018-07-06T04:48:38.663Z,100653.08
2018-07-06T04:51:25.257Z,100666.63
2018-07-06T04:54:11.779Z,100663.66
2018-07-06T04:56:58.263Z,100659.44
2018-07-06T04:59:44.738Z,100662.03
2018-07-06T05:02:31.258Z,100667.18
2018-07-06T05:05:17.731Z,100669.03
2018-07-06T05:08:04.359Z,100666.91
2018-07-06T05:10:50.909Z,100669.81
2018-07-06T05:13:37.443Z,100673.30
2018-07-06T05:16:24.087Z,100678.45
2018-07-06T05:19:10.531Z,100667.77
2018-07-06T05:21:56.961Z,100672.02
2018-07-06T05:24:43.717Z,100674.91
2018-07-06T05:27:30.187Z,100673.39
2018-07-06T05:30:16.833Z,100678.73
2018-07-06T05:33:03.319Z,100678.64
2018-07-06T05:35:43.851Z,100680.78
2018-07-06T05:38:30.794Z,100681.51
2018-07-06T05:41:17.695Z,100686.11
2018-07-06T05:44:03.996Z,100694.50
2018-07-06T05:46:50.573Z,100698.36
2018-07-06T05:49:36.972Z,100697.84
2018-07-06T05:52:23.604Z,100700.53
2018-07-06T05:55:10.110Z,100703.30
2018-07-06T05:57:56.737Z,100707.98
2018-07-06T06:00:43.399Z,100709.56
2018-07-06T06:03:29.964Z,100706.38
2018-07-06T06:06:16.516Z,100708.94
2018-07-06T06:08:44.588Z,100720.66
2018-07-06T06:11:14.423Z,100718.21
2018-07-06T06:13:45.255Z,100721.58
2018-07-06T06:16:16.025Z,100717.78
2018-07-06T06:18:46.549Z,100718.73
2018-07-06T06:21:16.739Z,100718.69
2018-07-06T06:23:47.245Z,100728.02
2018-07-06T06:26:21.510Z,100732.00
2018-07-06T06:28:51.313Z,100736.07
2018-07-06T06:31:22.213Z,100728.43
2018-07-06T06:33:53.033Z,100733.81
2018-07-06T06:36:24.141Z,100727.48
2018-07-06T06:38:58.632Z,100732.20
2018-07-06T06:41:28.697Z,100735.31
2018-07-06T06:43:58.767Z,100746.14
2018-07-06T06:46:29.155Z,100733.34
2018-07-06T06:48:59.101Z,100738.09
2018-07-06T06:51:28.994Z,100740.12
2018-07-06T06:54:00.046Z,100733.99
2018-07-06T06:56:30.093Z,100742.49
2018-07-06T06:59:00.395Z,100744.38
2018-07-06T07:01:31.307Z,100751.62
2018-07-06T07:04:01.273Z,100747.78
2018-07-06T07:06:32.239Z,100742.66
2018-07-06T07:09:02.279Z,100747.38
2018-07-06T07:11:32.351Z,100752.88
2018-07-06T07:14:02.289Z,100750.27
2018-07-06T07:16:32.898Z,100750.38
2018-07-06T07:19:02.951Z,100749.72
2018-07-06T07:21:33.042Z,100758.73
2018-07-06T07:24:03.025Z,100749.92
2018-07-06T07:26:33.617Z,100745.70
2018-07-06T07:29:03.542Z,100749.03
2018-07-06T07:31:33.533Z,100758.45
2018-07-06T07:34:03.535Z,100762.47
2018-07-06T07:36:33.442Z,100760.69
2018-07-06T07:39:03.691Z,100766.24
2018-07-06T07:41:33.627Z,100759.81
2018-07-06T07:44:03.513Z,100766.45
2018-07-06T07:46:33.690Z,100771.92
2018-07-06T07:49:05.284Z,100770.97
2018-07-06T07:52:02.812Z,100772.30
2018-07-06T07:54:52.987Z,100776.95
2018-07-06T07:57:23.187Z,100783.17
2018-07-06T07:59:56.893Z,100785.38
2018-07-06T08:02:26.737Z,100789.76
2018-07-06T08:04:56.637Z,100788.63
2018-07-06T08:07:26.497Z,100786.45
2018-07-06T08:09:56.628Z,100796.98
2018-07-06T08:12:26.542Z,100789.55
2018-07-06T08:14:56.445Z,100791.72
2018-07-06T08:17:26.275Z,100795.41
2018-07-06T08:19:56.127Z,100801.06
2018-07-06T08:22:26.039Z,100801.63
2018-07-06T08:24:56.025Z,100803.28
2018-07-06T08:27:25.749Z,100810.69
2018-07-06T08:29:55.493Z,100808.88
2018-07-06T08:32:25.299Z,100808.48
2018-07-06T08:35:11.804Z,100813.41
2018-07-06T08:38:00.786Z,100812.78
2018-07-06T08:40:30.733Z,100823.57
2018-07-06T08:43:01.578Z,100817.78
2018-07-06T08:45:32.407Z,100823.46
2018-07-06T08:48:02.346Z,100830.06
2018-07-06T08:50:32.367Z,100826.50
2018-07-06T08:53:02.154Z,100829.33
2018-07-06T08:55:32.222Z,100826.25
2018-07-06T08:58:02.030Z,100825.90
2018-07-06T09:00:31.852Z,100831.56
2018-07-06T09:03:01.696Z,100833.98
2018-07-06T09:05:31.633Z,100843.58
2018-07-06T09:08:01.321Z,100838.31
2018-07-06T09:10:31.259Z,100845.81
2018-07-06T09:13:01.118Z,100846.56
2018-07-06T09:15:30.882Z,100849.28
2018-07-06T09:18:00.761Z,100846.01
2018-07-06T09:20:30.654Z,100849.28
2018-07-06T09:23:00.834Z,100850.69
2018-07-06T09:25:30.769Z,100847.52
2018-07-06T09:28:00.815Z,100854.88
2018-07-06T09:30:30.897Z,100853.23
2018-07-06T09:33:00.742Z,100861.88
2018-07-06T09:35:30.642Z,100859.67
2018-07-06T09:38:00.570Z,100855.52
2018-07-06T09:40:30.836Z,100854.54
2018-07-06T09:43:04.140Z,100854.55
2018-07-06T09:45:34.572Z,100847.84
2018-07-06T09:48:05.721Z,100845.98
2018-07-06T09:50:36.657Z,100850.14
2018-07-06T09:53:06.792Z,100853.44
2018-07-06T09:55:36.736Z,100845.67
2018-07-06T09:58:07.442Z,100846.14
2018-07-06T10:00:43.228Z,100841.47
2018-07-06T10:03:14.816Z,100844.20
2018-07-06T10:05:44.905Z,100836.33
2018-07-06T10:08:16.756Z,100844.84
2018-07-06T10:10:47.110Z,100838.77
2018-07-06T10:13:18.760Z,100833.00
2018-07-06T10:15:50.132Z,100833.55
2018-07-06T10:18:20.233Z,100840.78
2018-07-06T10:20:52.341Z,100841.77
2018-07-06T10:23:22.389Z,100834.11
2018-07-06T10:25:52.168Z,100841.95
2018-07-06T10:29:47.248Z,100839.05
2018-07-06T10:32:24.025Z,100846.28
2018-07-06T10:34:55.963Z,100841.58
2018-07-06T10:37:27.087Z,100839.80
2018-07-06T10:39:57.035Z,100847.25
2018-07-06T10:42:27.809Z,100848.31
2018-07-06T10:44:57.794Z,100853.05
2018-07-06T10:47:27.630Z,100857.95
2018-07-06T10:49:58.454Z,100848.96
2018-07-06T10:52:42.629Z,100850.56
2018-07-06T10:55:14.177Z,100846.16
2018-07-06T10:57:44.365Z,100851.08
2018-07-06T11:00:14.574Z,100854.01
2018-07-06T11:02:45.034Z,100859.27
2018-07-06T11:05:15.249Z,100853.58
2018-07-06T11:07:50.032Z,100844.63
2018-07-06T11:10:19.900Z,100849.73
2018-07-06T11:12:51.134Z,100850.61
2018-07-06T11:15:21.715Z,100840.14
2018-07-06T11:17:51.999Z,100845.12
2018-07-06T11:20:23.661Z,100847.30
2018-07-06T11:22:54.188Z,100846.33
2018-07-06T11:25:24.626Z,100846.22
2018-07-06T11:27:55.339Z,100855.03
2018-07-06T11:30:26.468Z,100854.06
2018-07-06T11:32:57.378Z,100851.14
2018-07-06T11:35:28.531Z,100859.42
2018-07-06T11:37:58.882Z,100855.64
2018-07-06T11:40:29.252Z,100863.00
2018-07-06T11:42:59.093Z,100864.25
2018-07-06T11:50:48.273Z,100857.74
2018-07-06T11:53:18.557Z,100861.02
2018-07-06T11:55:50.564Z,100859.22
2018-07-06T11:58:20.418Z,100859.97
2018-07-06T12:00:50.466Z,100863.38
2018-07-06T12:03:20.275Z,100855.56
2018-07-06T12:05:50.369Z,100864.95
2018-07-06T12:08:21.312Z,100861.48
2018-07-06T12:10:51.710Z,100854.95
2018-07-06T12:13:22.501Z,100854.45
2018-07-06T12:15:53.246Z,100855.89
2018-07-06T12:18:24.214Z,100856.17
2018-07-06T12:20:55.679Z,100873.19
2018-07-06T12:23:27.097Z,100865.02
2018-07-06T12:25:57.480Z,100868.00
2018-07-06T12:28:26.937Z,100861.81
2018-07-06T12:30:57.956Z,100864.36
2018-07-06T12:33:28.292Z,100862.67
2018-07-06T12:35:58.217Z,100857.86
2018-07-06T12:38:28.364Z,100863.32
2018-07-06T12:40:58.644Z,100863.87
2018-07-06T12:43:28.520Z,100863.67
2018-07-06T12:45:58.409Z,100858.56
2018-07-06T12:48:28.810Z,100863.02
2018-07-06T12:50:58.689Z,100853.33
2018-07-06T12:53:28.803Z,100852.61
2018-07-06T12:55:58.860Z,100866.55
2018-07-06T12:58:28.935Z,100854.55
2018-07-06T13:00:58.781Z,100851.36
2018-07-06T13:03:28.720Z,100854.41
2018-07-06T13:05:58.660Z,100848.50
2018-07-06T13:08:29.416Z,100845.84
2018-07-06T13:10:59.609Z,100845.36
2018-07-06T13:13:29.457Z,100854.17
2018-07-06T13:15:59.357Z,100841.80
2018-07-06T13:18:29.213Z,100848.75
2018-07-06T13:20:59.076Z,100844.69
2018-07-06T13:23:29.646Z,100850.98
2018-07-06T13:25:59.689Z,100857.20
2018-07-06T13:28:29.462Z,100850.41
2018-07-06T13:30:59.389Z,100852.29
2018-07-06T13:33:34.958Z,100846.86
2018-07-06T13:36:04.751Z,100850.48
2018-07-06T13:38:34.629Z,100856.73
2018-07-06T13:41:04.784Z,100853.70
2018-07-06T13:43:34.654Z,100848.28
2018-07-06T13:46:04.565Z,100843.41
2018-07-06T13:48:34.396Z,100850.70
2018-07-06T13:51:04.248Z,100859.36
2018-07-06T13:53:34.039Z,100856.53
2018-07-06T13:56:03.794Z,100845.00
2018-07-06T13:58:33.735Z,100847.51
2018-07-06T14:01:03.643Z,100852.44
2018-07-06T14:03:33.582Z,100848.45
2018-07-06T14:06:03.393Z,100842.98
2018-07-06T14:08:33.311Z,100840.11
2018-07-06T14:11:03.228Z,100849.49
2018-07-06T14:13:33.135Z,100846.66
2018-07-06T14:16:02.906Z,100840.83
2018-07-06T14:18:32.775Z,100843.48
2018-07-06T14:21:02.613Z,100850.25
2018-07-06T14:23:32.839Z,100845.50
2018-07-06T14:26:02.760Z,100837.27
2018-07-06T14:28:32.583Z,100843.41
2018-07-06T14:31:02.373Z,100840.34
2018-07-06T14:33:32.196Z,100841.07
2018-07-06T14:36:02.178Z,100833.78
2018-07-06T14:38:31.982Z,100847.39
2018-07-06T14:41:01.810Z,100836.50
2018-07-06T14:43:31.665Z,100833.41
2018-07-06T14:46:01.543Z,100835.91
2018-07-06T14:48:31.347Z,100834.13
2018-07-06T14:51:01.195Z,100836.52
2018-07-06T14:53:31.607Z,100838.34
2018-07-06T14:56:01.632Z,100836.38
2018-07-06T14:58:31.978Z,100830.19
2018-07-06T15:01:02.066Z,100837.01
2018-07-06T15:03:32.876Z,100831.23
2018-07-06T15:06:02.946Z,100843.63
2018-07-06T15:08:32.904Z,100842.00
2018-07-06T15:11:02.857Z,100848.43
2018-07-06T15:13:32.788Z,100850.27
2018-07-06T15:16:02.673Z,100839.52
2018-07-06T15:18:32.413Z,100849.00
2018-07-06T15:21:02.348Z,100853.34
2018-07-06T15:23:32.435Z,100838.93
2018-07-06T15:26:02.497Z,100850.47
2018-07-06T15:28:32.504Z,100839.61
2018-07-06T15:31:02.516Z,100846.53
2018-07-06T15:33:32.467Z,100848.03
2018-07-06T15:36:02.406Z,100846.43
2018-07-06T15:38:32.445Z,100851.84
2018-07-06T15:41:02.389Z,100854.54
2018-07-06T15:43:32.306Z,100856.97
2018-07-06T15:46:02.135Z,100852.47
2018-07-06T15:48:32.011Z,100861.02
2018-07-06T15:51:01.875Z,100853.67
2018-07-06T15:53:31.687Z,100859.30
2018-07-06T15:56:01.506Z,100843.94
2018-07-06T15:58:31.303Z,100854.89
2018-07-06T16:01:01.232Z,100849.94
2018-07-06T16:03:31.073Z,100856.22
2018-07-06T16:06:01.026Z,100852.22
2018-07-06T16:08:30.919Z,100847.99
2018-07-06T16:11:00.767Z,100846.09
2018-07-06T16:13:30.593Z,100850.72
2018-07-06T16:16:00.363Z,100851.48
2018-07-06T16:18:30.220Z,100850.81
2018-07-06T16:21:00.107Z,100857.80
2018-07-06T16:23:29.927Z,100853.25
2018-07-06T16:25:59.696Z,100856.56
2018-07-06T16:28:29.637Z,100853.30
2018-07-06T16:30:59.496Z,100853.41
2018-07-06T16:33:29.404Z,100851.89
2018-07-06T16:35:59.241Z,100857.43
2018-07-06T16:38:29.029Z,100853.02
2018-07-06T16:40:58.837Z,100855.26
2018-07-06T16:43:28.722Z,100849.95
2018-07-06T16:45:58.598Z,100851.17
2018-07-06T16:48:28.476Z,100850.44
2018-07-06T16:50:58.362Z,100844.86
2018-07-06T16:53:28.131Z,100843.40
2018-07-06T16:55:58.234Z,100845.22
2018-07-06T16:58:28.086Z,100846.76
2018-07-06T17:00:58.141Z,100837.02
2018-07-06T17:03:27.986Z,100838.99
2018-07-06T17:05:57.968Z,100846.98
2018-07-06T17:08:28.005Z,100838.34
2018-07-06T17:10:57.886Z,100841.05
2018-07-06T17:13:27.755Z,100848.48
2018-07-06T17:15:57.772Z,100851.56
2018-07-06T17:18:29.200Z,100851.23
2018-07-06T17:20:59.603Z,100849.45
2018-07-06T17:23:29.408Z,100844.53
2018-07-06T17:25:59.740Z,100854.17
2018-07-06T17:28:29.622Z,100847.63
2018-07-06T17:30:59.454Z,100846.09
2018-07-06T17:33:29.404Z,100856.62
2018-07-06T17:35:59.145Z,100849.55
2018-07-06T17:38:29.050Z,100846.06
2018-07-06T17:40:58.866Z,100851.11
2018-07-06T17:43:29.402Z,100842.15
2018-07-06T17:45:59.238Z,100846.94
2018-07-06T17:48:29.238Z,100840.48
2018-07-06T17:50:59.258Z,100846.51
2018-07-06T17:53:29.199Z,100844.88
2018-07-06T17:55:59.697Z,100837.67
2018-07-06T17:58:29.644Z,100837.52
2018-07-06T18:00:59.592Z,100839.87
2018-07-06T18:03:29.425Z,100845.16
2018-07-06T18:05:59.286Z,100841.59
2018-07-06T18:08:31.413Z,100849.27
2018-07-06T18:11:01.280Z,100853.83
2018-07-06T18:13:31.234Z,100850.75
2018-07-06T18:16:01.815Z,100854.31
2018-07-06T18:18:32.849Z,100854.18
2018-07-06T18:21:03.160Z,100855.28
2018-07-06T18:23:33.857Z,100857.87
2018-07-06T18:26:04.366Z,100866.84
2018-07-06T18:28:34.627Z,100867.13
2018-07-06T18:31:04.890Z,100860.03
2018-07-06T18:33:34.765Z,100860.43
2018-07-06T18:36:05.011Z,100863.58
2018-07-06T18:38:35.317Z,100867.94
2018-07-06T18:41:05.866Z,100863.38
2018-07-06T18:43:35.942Z,100870.74
2018-07-06T18:46:06.473Z,100875.03
2018-07-06T18:48:37.427Z,100877.58
2018-07-06T18:51:07.643Z,100878.33
2018-07-06T18:53:37.926Z,100881.37
2018-07-06T18:56:08.179Z,100879.92
2018-07-06T18:58:38.105Z,100880.15
2018-07-06T19:01:20.109Z,100883.33
2018-07-06T19:03:49.676Z,100884.59
2018-07-06T19:06:19.557Z,100883.75
2018-07-06T19:08:50.510Z,100886.02
2018-07-06T19:11:20.530Z,100889.25
2018-07-06T19:13:50.466Z,100895.08
2018-07-06T19:16:20.522Z,100890.70
2018-07-06T19:18:50.510Z,100897.73
2018-07-06T19:21:21.182Z,100907.16
2018-07-06T19:23:51.313Z,100910.42
2018-07-06T19:26:22.983Z,100914.16
2018-07-06T19:28:53.816Z,100915.98
2018-07-06T19:31:23.831Z,100926.39
2018-07-06T19:33:53.932Z,100888.80
2018-07-06T19:36:26.077Z,100922.41
2018-07-06T19:38:57.012Z,100926.62
2018-07-06T19:41:26.837Z,100929.36
2018-07-06T19:43:56.995Z,100931.55
2018-07-06T19:46:26.969Z,100937.08
2018-07-06T19:48:58.432Z,100941.20
2018-07-06T19:51:28.321Z,100935.78
2018-07-06T19:53:58.305Z,100945.92
2018-07-06T19:56:30.049Z,100946.93
2018-07-06T19:58:59.942Z,100945.42
2018-07-06T20:01:32.979Z,100954.59
2018-07-06T20:04:03.512Z,100960.70
2018-07-06T20:06:33.412Z,100964.14
2018-07-06T20:09:03.982Z,100965.30
2018-07-06T20:11:33.808Z,100965.16
2018-07-06T20:14:04.117Z,100963.30
2018-07-06T20:16:35.796Z,100962.05
2018-07-06T20:19:05.729Z,100969.80
2018-07-06T20:21:36.447Z,100962.45
2018-07-06T20:24:07.582Z,100965.00
2018-07-06T20:26:38.094Z,100968.67
2018-07-06T20:29:08.805Z,100970.75
2018-07-06T20:31:39.311Z,100971.83
2018-07-06T20:34:09.902Z,100973.33
2018-07-06T20:36:39.844Z,100973.09
2018-07-06T20:39:10.732Z,100977.26
2018-07-06T20:41:40.603Z,100971.27
2018-07-06T20:44:10.452Z,100976.89
2018-07-06T20:46:40.296Z,100977.47
2018-07-06T20:49:10.153Z,100982.09
2018-07-06T20:51:41.246Z,100984.07
2018-07-06T20:54:11.148Z,100984.85
2018-07-06T20:56:41.012Z,100988.14
2018-07-06T20:59:10.828Z,100990.92
2018-07-06T21:01:40.829Z,100992.20
2018-07-06T21:04:10.685Z,100994.00
2018-07-06T21:06:40.621Z,100988.92
2018-07-06T21:09:10.609Z,100995.44
2018-07-06T21:11:40.464Z,100993.40
2018-07-06T21:14:10.663Z,100990.38
2018-07-06T21:16:40.565Z,100991.96
2018-07-06T21:19:10.373Z,100993.77
2018-07-06T21:21:40.272Z,100994.88
2018-07-06T21:24:10.171Z,101000.28
2018-07-06T21:26:41.189Z,100999.71
2018-07-06T21:29:10.972Z,100998.17
2018-07-06T21:31:40.839Z,101007.27
2018-07-06T21:34:10.788Z,101003.63
2018-07-06T21:36:40.602Z,101014.03
2018-07-06T21:39:10.557Z,101008.58
2018-07-06T21:41:40.476Z,101017.33
2018-07-06T21:44:10.288Z,101013.89
2018-07-06T21:46:40.035Z,101016.02
2018-07-06T21:49:09.929Z,101019.04
2018-07-06T21:51:39.424Z,101021.45
2018-07-06T21:54:09.327Z,101016.11
2018-07-06T21:56:39.156Z,100981.06
2018-07-06T21:59:09.071Z,101023.56
2018-07-06T22:01:38.890Z,101018.73
2018-07-06T22:04:08.803Z,101019.60
2018-07-06T22:06:38.571Z,101022.95
2018-07-06T22:09:08.552Z,101026.55
2018-07-06T22:11:38.399Z,101025.33
2018-07-06T22:14:08.304Z,101027.89
2018-07-06T22:16:38.188Z,101030.77
2018-07-06T22:19:07.558Z,101028.81
2018-07-06T22:21:37.441Z,101031.23
2018-07-06T22:24:07.459Z,101035.02
2018-07-06T22:26:37.436Z,101034.20
2018-07-06T22:29:07.387Z,101042.08
2018-07-06T22:31:37.189Z,101038.13
2018-07-06T22:34:06.994Z,101040.64
2018-07-06T22:36:36.879Z,101040.64
2018-07-06T22:39:08.081Z,101037.29
2018-07-06T22:41:38.045Z,101043.41
2018-07-06T22:44:07.931Z,101044.34
2018-07-06T22:46:37.853Z,101043.83
2018-07-06T22:49:07.778Z,101048.25
2018-07-06T22:51:37.592Z,101047.73
2018-07-06T22:54:07.439Z,101046.27
2018-07-06T22:56:37.279Z,101045.91
2018-07-06T22:59:07.208Z,101046.61
2018-07-06T23:01:37.083Z,101048.71
2018-07-06T23:04:06.948Z,101044.25
2018-07-06T23:06:37.251Z,101043.78
2018-07-06T23:09:08.187Z,101048.12
2018-07-06T23:11:38.030Z,101051.10
2018-07-06T23:14:07.849Z,101049.16
2018-07-06T23:16:37.623Z,101051.69
2018-07-06T23:19:07.419Z,101052.69
2018-07-06T23:21:37.256Z,101056.69
2018-07-06T23:24:07.187Z,101056.31
2018-07-06T23:26:37.025Z,101051.89
2018-07-06T23:29:06.951Z,101060.58
2018-07-06T23:31:36.814Z,101057.41
2018-07-06T23:34:06.787Z,101065.52
2018-07-06T23:36:36.650Z,101057.84
2018-07-06T23:39:06.722Z,101067.50
2018-07-06T23:41:36.646Z,101068.73
2018-07-06T23:44:06.639Z,101074.86
2018-07-06T23:46:36.443Z,101080.14
2018-07-06T23:49:06.269Z,101080.56
2018-07-06T23:51:36.055Z,101083.61
2018-07-06T23:54:05.986Z,101073.75
2018-07-06T23:56:37.289Z,101077.80
2018-07-06T23:59:07.098Z,101080.80
